createdAt,value
2017-12-01T00:02:40.825Z,10.60
2017-12-01T00:05:20.151Z,9.10
2017-12-01T00:07:56.759Z,11.00
2017-12-01T00:10:35.443Z,10.60
2017-12-01T00:13:14.324Z,9.07
2017-12-01T00:15:56.368Z,10.48
2017-12-01T00:18:44.136Z,10.23
2017-12-01T00:21:26.591Z,9.48
2017-12-01T00:24:05.176Z,9.40
2017-12-01T00:26:43.815Z,11.25
2017-12-01T00:29:25.051Z,9.40
2017-12-01T00:32:07.395Z,10.48
2017-12-01T00:34:42.356Z,9.02
2017-12-01T00:37:18.003Z,10.45
2017-12-01T00:39:55.555Z,11.35
2017-12-01T00:42:30.101Z,8.50
2017-12-01T00:45:06.977Z,11.18
2017-12-01T00:47:51.069Z,8.63
2017-12-01T00:50:42.442Z,9.90
2017-12-01T00:53:19.143Z,10.25
2017-12-01T00:55:58.452Z,8.60
2017-12-01T00:58:38.172Z,11.82
2017-12-01T01:01:18.685Z,10.82
2017-12-01T01:03:57.646Z,11.05
2017-12-01T01:06:40.308Z,12.65
2017-12-01T01:09:42.574Z,13.02
2017-12-01T01:12:24.636Z,14.00
2017-12-01T01:15:08.225Z,14.48
2017-12-01T01:18:03.136Z,17.33
2017-12-01T01:20:42.941Z,17.05
2017-12-01T01:23:26.771Z,14.87
2017-12-01T01:26:04.370Z,17.33
2017-12-01T01:28:39.259Z,19.48
2017-12-01T01:31:17.896Z,19.42
2017-12-01T01:34:06.394Z,19.20
2017-12-01T01:36:46.260Z,20.50
2017-12-01T01:39:25.861Z,20.23
2017-12-01T01:42:00.914Z,18.12
2017-12-01T01:44:36.854Z,18.80
2017-12-01T01:47:18.911Z,20.15
2017-12-01T01:50:17.832Z,18.48
2017-12-01T01:52:54.168Z,18.90
2017-12-01T01:55:38.918Z,17.83
2017-12-01T01:58:19.972Z,16.67
2017-12-01T02:00:59.569Z,18.45
2017-12-01T02:03:39.317Z,19.75
2017-12-01T02:06:18.779Z,22.20
2017-12-01T02:09:10.654Z,21.42
2017-12-01T02:11:46.764Z,24.98
2017-12-01T02:17:12.033Z,28.65
2017-12-01T02:19:54.078Z,24.25
2017-12-01T02:22:35.125Z,27.35
2017-12-01T02:25:12.706Z,27.70
2017-12-01T02:27:58.066Z,28.33
2017-12-01T02:30:35.457Z,26.15
2017-12-01T02:33:18.271Z,25.67
2017-12-01T02:36:00.196Z,26.98
2017-12-01T02:38:40.548Z,23.75
2017-12-01T02:41:16.918Z,24.87
2017-12-01T02:44:03.662Z,25.37
2017-12-01T02:46:41.980Z,27.67
2017-12-01T02:49:25.227Z,22.48
2017-12-01T02:52:04.186Z,23.75
2017-12-01T02:57:30.733Z,25.08
2017-12-01T03:00:13.779Z,26.30
2017-12-01T03:02:53.291Z,27.00
2017-12-01T03:05:28.972Z,23.95
2017-12-01T03:08:10.428Z,24.08
2017-12-01T03:10:51.259Z,24.10
2017-12-01T03:13:43.382Z,25.77
2017-12-01T03:16:27.376Z,26.55
2017-12-01T03:22:13.696Z,26.40
2017-12-01T03:25:08.679Z,23.87
2017-12-01T03:27:48.758Z,24.10
2017-12-01T03:30:34.449Z,26.42
2017-12-01T03:33:14.805Z,25.92
2017-12-01T03:36:01.629Z,22.62
2017-12-01T03:38:39.368Z,23.15
2017-12-01T03:41:20.458Z,23.62
2017-12-01T03:43:59.685Z,21.65
2017-12-01T03:46:42.472Z,27.00
2017-12-01T03:49:22.072Z,25.48
2017-12-01T03:52:06.684Z,28.40
2017-12-01T03:54:48.156Z,27.73
2017-12-01T03:57:29.852Z,24.10
2017-12-01T04:00:11.653Z,27.92
2017-12-01T04:03:00.184Z,19.12
2017-12-01T04:05:40.562Z,21.17
2017-12-01T04:08:22.614Z,20.37
2017-12-01T04:11:03.119Z,18.30
2017-12-01T04:13:40.202Z,18.23
2017-12-01T04:16:21.715Z,21.15
2017-12-01T04:19:02.302Z,21.30
2017-12-01T04:21:41.896Z,21.52
2017-12-01T04:24:20.026Z,21.35
2017-12-01T04:26:59.026Z,19.05
2017-12-01T04:29:41.059Z,18.30
2017-12-01T04:32:29.277Z,17.12
2017-12-01T04:35:10.569Z,18.80
2017-12-01T04:37:49.437Z,23.80
2017-12-01T04:40:26.856Z,24.20
2017-12-01T04:43:04.107Z,27.77
2017-12-01T04:45:44.179Z,24.65
2017-12-01T04:56:54.561Z,25.60
2017-12-01T04:59:33.409Z,24.77
2017-12-01T05:02:09.302Z,22.40
2017-12-01T05:07:41.754Z,22.80
2017-12-01T05:10:33.090Z,26.37
2017-12-01T05:13:08.884Z,25.67
2017-12-01T05:15:44.237Z,29.33
2017-12-01T05:23:54.834Z,32.08
2017-12-01T05:26:34.747Z,37.30
2017-12-01T05:29:17.723Z,34.60
2017-12-01T05:31:58.732Z,36.85
2017-12-01T05:34:37.539Z,35.85
2017-12-01T05:37:19.255Z,38.40
2017-12-01T05:39:57.654Z,34.55
2017-12-01T05:42:46.439Z,33.28
2017-12-01T05:48:13.304Z,35.97
2017-12-01T05:50:56.104Z,32.72
2017-12-01T05:53:43.849Z,36.55
2017-12-01T05:56:28.147Z,40.20
2017-12-01T05:59:14.672Z,46.35
2017-12-01T06:01:58.467Z,40.70
2017-12-01T06:04:42.830Z,38.25
2017-12-01T06:07:20.333Z,41.35
2017-12-01T06:10:07.115Z,39.08
2017-12-01T06:12:45.946Z,40.47
2017-12-01T06:15:23.267Z,37.13
2017-12-01T06:18:03.444Z,33.92
2017-12-01T06:20:50.525Z,29.27
2017-12-01T06:23:38.035Z,30.48
2017-12-01T06:26:21.817Z,32.90
2017-12-01T06:29:20.251Z,32.90
2017-12-01T06:32:11.801Z,41.88
2017-12-01T06:34:53.308Z,45.00
2017-12-01T06:40:22.781Z,48.83
2017-12-01T06:43:02.562Z,77.35
2017-12-01T06:45:41.249Z,72.97
2017-12-01T06:48:21.712Z,68.28
2017-12-01T06:51:00.014Z,79.30
2017-12-01T06:53:51.724Z,74.97
2017-12-01T06:56:34.770Z,146.45
2017-12-01T06:59:18.487Z,89.85
2017-12-01T07:02:16.322Z,59.17
2017-12-01T07:04:53.425Z,50.95
2017-12-01T07:07:36.719Z,46.22
2017-12-01T07:10:13.929Z,47.80
2017-12-01T07:12:53.349Z,42.08
2017-12-01T07:15:34.486Z,39.75
2017-12-01T07:18:24.384Z,39.05
2017-12-01T07:21:23.421Z,35.28
2017-12-01T07:24:25.855Z,40.25
2017-12-01T07:27:18.602Z,37.95
2017-12-01T07:30:20.644Z,34.70
2017-12-01T07:33:06.387Z,33.63
2017-12-01T07:36:03.715Z,39.50
2017-12-01T07:38:43.699Z,32.08
2017-12-01T07:44:17.216Z,31.65
2017-12-01T07:46:55.442Z,35.92
2017-12-01T07:52:42.504Z,35.42
2017-12-01T07:55:42.815Z,31.52
2017-12-01T07:58:28.847Z,34.15
2017-12-01T08:01:12.707Z,30.17
2017-12-01T08:03:54.968Z,34.30
2017-12-01T08:06:55.051Z,31.58
2017-12-01T08:09:37.681Z,32.15
2017-12-01T08:12:17.600Z,32.33
2017-12-01T08:14:59.939Z,27.62
2017-12-01T08:17:53.245Z,29.10
2017-12-01T08:20:35.686Z,29.77
2017-12-01T08:23:30.164Z,30.95
2017-12-01T08:26:12.836Z,26.60
2017-12-01T08:28:58.559Z,29.80
2017-12-01T08:31:39.102Z,30.60
2017-12-01T08:34:27.417Z,30.70
2017-12-01T08:37:30.017Z,36.88
2017-12-01T08:45:54.866Z,31.73
2017-12-01T08:48:40.097Z,28.27
2017-12-01T08:51:45.242Z,29.00
2017-12-01T08:54:30.086Z,31.85
2017-12-01T08:57:16.967Z,31.08
2017-12-01T09:02:46.730Z,33.38
2017-12-01T09:08:33.614Z,34.58
2017-12-01T09:11:28.811Z,30.73
2017-12-01T09:47:34.828Z,24.10
2017-12-01T09:50:20.100Z,22.35
2017-12-01T09:53:00.140Z,23.50
2017-12-01T09:55:44.828Z,19.98
2017-12-01T09:58:27.743Z,21.17
2017-12-01T10:01:45.650Z,19.00
2017-12-01T10:04:38.809Z,17.10
2017-12-01T10:07:24.329Z,14.27
2017-12-01T10:13:05.185Z,15.65
2017-12-01T10:15:50.843Z,13.93
2017-12-01T10:18:31.686Z,15.93
2017-12-01T10:21:21.152Z,16.30
2017-12-01T10:24:24.268Z,17.40
2017-12-01T10:27:11.583Z,18.30
2017-12-01T10:30:00.703Z,21.58
2017-12-01T10:35:21.970Z,25.45
2017-12-01T10:41:03.532Z,24.20
2017-12-01T10:43:52.859Z,27.75
2017-12-01T10:46:43.924Z,31.67
2017-12-01T10:49:29.859Z,28.15
2017-12-01T10:52:10.922Z,30.90
2017-12-01T10:54:55.840Z,29.12
2017-12-01T11:00:29.523Z,28.75
2017-12-01T11:03:12.315Z,31.37
2017-12-01T11:05:58.725Z,32.63
2017-12-01T11:08:41.854Z,28.77
2017-12-01T11:11:27.499Z,33.20
2017-12-01T11:17:19.261Z,35.47
2017-12-01T11:20:06.553Z,35.05
2017-12-01T11:22:55.642Z,37.75
2017-12-01T11:25:46.207Z,31.20
2017-12-01T11:28:30.838Z,31.77
2017-12-01T11:31:15.151Z,32.30
2017-12-01T11:33:58.092Z,28.75
2017-12-01T11:36:50.186Z,27.37
2017-12-01T11:39:39.444Z,29.60
2017-12-01T11:42:32.146Z,32.08
2017-12-01T11:45:19.227Z,34.85
2017-12-01T11:48:07.742Z,35.03
2017-12-01T11:50:50.809Z,35.20
2017-12-01T11:53:35.081Z,29.85
2017-12-01T11:56:21.443Z,34.08
2017-12-01T11:59:03.177Z,36.30
2017-12-01T12:02:26.949Z,34.35
2017-12-01T12:05:20.427Z,39.50
2017-12-01T12:08:09.519Z,41.53
2017-12-01T12:10:50.754Z,42.55
2017-12-01T12:13:35.850Z,46.63
2017-12-01T12:16:16.393Z,42.45
2017-12-01T12:18:59.422Z,47.25
2017-12-01T12:21:38.150Z,42.22
2017-12-01T12:24:47.012Z,41.35
2017-12-01T12:27:28.363Z,37.83
2017-12-01T12:30:13.101Z,41.63
2017-12-01T12:32:57.987Z,41.08
2017-12-01T12:36:11.246Z,38.40
2017-12-01T12:38:59.492Z,36.88
2017-12-01T12:41:49.339Z,36.72
2017-12-01T12:47:26.286Z,39.58
2017-12-01T12:50:04.901Z,38.15
2017-12-01T12:52:55.526Z,39.10
2017-12-01T12:55:39.827Z,38.38
2017-12-01T12:58:18.898Z,34.33
2017-12-01T13:01:07.241Z,41.05
2017-12-01T13:03:50.711Z,33.95
2017-12-01T13:06:32.939Z,38.88
2017-12-01T13:09:24.119Z,37.38
2017-12-01T13:12:10.982Z,40.35
2017-12-01T13:14:52.171Z,35.17
2017-12-01T13:17:39.443Z,30.25
2017-12-01T13:20:28.123Z,31.58
2017-12-01T13:26:15.233Z,30.15
2017-12-01T13:29:06.357Z,26.87
2017-12-01T13:31:49.015Z,37.28
2017-12-01T13:37:24.124Z,31.75
2017-12-01T13:40:07.277Z,31.55
2017-12-01T13:42:59.108Z,32.38
2017-12-01T13:45:41.238Z,28.05
2017-12-01T13:48:19.743Z,30.30
2017-12-01T13:51:05.924Z,28.05
2017-12-01T13:53:45.791Z,28.23
2017-12-01T13:59:24.941Z,28.17
2017-12-01T14:02:09.168Z,25.15
2017-12-01T14:04:53.351Z,25.12
2017-12-01T14:07:59.664Z,26.37
2017-12-01T14:10:50.774Z,26.42
2017-12-01T14:13:30.963Z,29.75
2017-12-01T14:16:14.957Z,31.23
2017-12-01T14:22:23.634Z,26.45
2017-12-01T14:25:13.480Z,24.77
2017-12-01T14:27:56.380Z,20.75
2017-12-01T14:31:04.879Z,22.48
2017-12-01T14:33:55.503Z,23.23
2017-12-01T14:36:34.078Z,28.92
2017-12-01T14:39:22.318Z,26.98
2017-12-01T14:42:01.106Z,29.37
2017-12-01T14:44:48.108Z,25.73
2017-12-01T14:47:31.933Z,24.40
2017-12-01T14:50:27.013Z,23.92
2017-12-01T14:53:07.184Z,23.77
2017-12-01T14:55:51.333Z,25.37
2017-12-01T14:58:42.906Z,25.92
2017-12-01T15:01:42.251Z,23.48
2017-12-01T15:04:29.398Z,22.83
2017-12-01T15:07:27.896Z,23.83
2017-12-01T15:10:19.506Z,24.60
2017-12-01T15:13:04.688Z,21.80
2017-12-01T15:15:44.893Z,25.75
2017-12-01T15:18:33.671Z,22.05
2017-12-01T15:21:16.168Z,22.05
2017-12-01T15:24:02.907Z,25.15
2017-12-01T15:26:47.924Z,23.05
2017-12-01T15:29:39.207Z,21.15
2017-12-01T15:32:22.242Z,20.90
2017-12-01T15:35:11.586Z,22.92
2017-12-01T15:37:51.680Z,25.42
2017-12-01T15:40:37.802Z,28.92
2017-12-01T15:43:35.834Z,27.73
2017-12-01T15:46:29.767Z,26.85
2017-12-01T15:49:21.963Z,24.23
2017-12-01T15:52:04.452Z,27.77
2017-12-01T15:54:40.527Z,28.20
2017-12-01T15:57:25.588Z,31.67
2017-12-01T16:00:11.177Z,29.75
2017-12-01T16:02:54.196Z,33.58
2017-12-01T16:05:44.722Z,31.62
2017-12-01T16:08:36.057Z,31.17
2017-12-01T16:11:19.132Z,34.25
2017-12-01T16:16:59.312Z,29.05
2017-12-01T16:20:01.263Z,30.60
2017-12-01T16:22:54.434Z,30.60
2017-12-01T16:25:40.616Z,32.35
2017-12-01T16:28:40.910Z,31.37
2017-12-01T16:31:54.141Z,29.90
2017-12-01T16:34:36.480Z,29.87
2017-12-01T16:37:25.079Z,30.77
2017-12-01T16:40:04.002Z,26.80
2017-12-01T16:42:51.314Z,32.20
2017-12-01T16:45:31.868Z,32.63
2017-12-01T16:48:27.292Z,31.45
2017-12-01T16:51:15.191Z,32.17
2017-12-01T16:54:02.206Z,37.15
2017-12-01T16:56:47.538Z,36.90
2017-12-01T16:59:29.906Z,42.65
2017-12-01T17:02:10.099Z,57.50
2017-12-01T17:04:54.783Z,60.90
2017-12-01T17:07:37.978Z,42.70
2017-12-01T17:10:24.633Z,42.00
2017-12-01T17:13:12.140Z,38.83
2017-12-01T17:15:52.658Z,39.42
2017-12-01T17:18:32.105Z,39.25
2017-12-01T17:21:14.019Z,41.78
2017-12-01T17:23:56.526Z,41.50
2017-12-01T17:26:33.964Z,40.92
2017-12-01T17:29:19.076Z,42.42
2017-12-01T17:32:01.229Z,41.05
2017-12-01T17:34:39.883Z,38.30
2017-12-01T17:37:24.666Z,40.72
2017-12-01T17:40:17.187Z,40.92
2017-12-01T17:43:06.037Z,41.30
2017-12-01T17:45:50.658Z,39.65
2017-12-01T17:48:34.776Z,46.25
2017-12-01T17:51:19.104Z,38.17
2017-12-01T17:53:58.302Z,44.28
2017-12-01T17:56:44.216Z,37.00
2017-12-01T17:59:28.938Z,43.38
2017-12-01T18:02:20.856Z,38.80
2017-12-01T18:05:00.056Z,40.92
2017-12-01T18:07:41.210Z,43.67
2017-12-01T18:10:21.535Z,39.45
2017-12-01T18:13:07.994Z,41.65
2017-12-01T18:15:56.564Z,37.42
2017-12-01T18:18:36.606Z,43.67
2017-12-01T18:21:12.939Z,42.13
2017-12-01T18:23:58.050Z,49.28
2017-12-01T18:26:38.708Z,42.65
2017-12-01T18:29:20.649Z,40.65
2017-12-01T18:32:10.391Z,38.60
2017-12-01T18:35:24.392Z,40.40
2017-12-01T18:39:40.183Z,36.03
2017-12-01T18:42:31.653Z,40.10
2017-12-01T18:45:27.686Z,37.97
2017-12-01T18:51:42.403Z,38.13
2017-12-01T18:54:35.396Z,37.53
2017-12-01T18:57:49.850Z,44.00
2017-12-01T19:00:51.348Z,45.40
2017-12-01T19:10:25.497Z,42.92
2017-12-01T19:13:29.204Z,38.28
2017-12-01T19:19:53.302Z,40.25
2017-12-01T19:22:42.186Z,44.30
2017-12-01T19:31:18.733Z,37.17
2017-12-01T19:41:15.577Z,41.53
2017-12-01T19:44:22.880Z,36.42
2017-12-01T19:47:07.656Z,41.58
2017-12-01T19:49:55.283Z,42.13
2017-12-01T19:52:53.934Z,38.67
2017-12-01T19:56:15.620Z,42.65
2017-12-01T19:59:05.335Z,38.17
2017-12-01T20:05:29.313Z,45.15
2017-12-01T20:08:35.720Z,39.38
2017-12-01T20:14:46.721Z,40.30
2017-12-01T20:17:37.333Z,40.33
2017-12-01T20:20:17.337Z,45.22
2017-12-01T20:23:03.584Z,43.05
2017-12-01T20:58:16.200Z,34.00
2017-12-01T21:01:05.334Z,35.20
2017-12-01T21:09:13.865Z,33.63
2017-12-01T21:12:22.832Z,35.70
2017-12-01T21:15:17.508Z,35.65
2017-12-01T21:18:26.853Z,33.00
2017-12-01T21:24:42.575Z,36.88
2017-12-01T21:28:00.576Z,31.45
2017-12-01T21:30:51.132Z,36.88
2017-12-01T21:33:37.997Z,39.63
2017-12-01T21:36:15.622Z,37.25
2017-12-01T21:39:01.863Z,33.97
2017-12-01T21:41:41.283Z,30.48
2017-12-01T21:44:24.106Z,35.25
2017-12-01T21:47:05.968Z,32.63
2017-12-01T21:49:52.616Z,31.02
2017-12-01T21:52:38.014Z,31.40
2017-12-01T22:49:03.737Z,37.40
2017-12-01T22:51:48.075Z,38.70
2017-12-01T22:54:28.725Z,35.85
2017-12-01T22:57:39.294Z,36.22
2017-12-01T23:00:21.244Z,39.78
2017-12-01T23:03:08.204Z,38.42
2017-12-01T23:05:54.959Z,38.53
2017-12-01T23:08:41.889Z,37.90
2017-12-01T23:11:25.338Z,36.92
2017-12-01T23:14:02.023Z,39.50
2017-12-01T23:16:38.124Z,37.60
2017-12-01T23:19:13.639Z,38.22
2017-12-01T23:21:50.517Z,39.60
2017-12-01T23:24:29.345Z,40.20
2017-12-01T23:27:07.491Z,38.53
2017-12-01T23:32:20.293Z,36.33
2017-12-01T23:34:57.730Z,34.72
2017-12-01T23:37:38.136Z,35.97
2017-12-01T23:42:53.085Z,35.78
2017-12-01T23:45:28.366Z,35.65
2017-12-01T23:48:08.586Z,36.10
2017-12-01T23:50:43.124Z,35.83
2017-12-01T23:53:23.911Z,39.83
2017-12-01T23:56:06.557Z,34.03
2017-12-01T23:58:48.645Z,33.70
